Time;durP1;ratioP1;P1;durP2;ratioP2;P2;SDS_P1;SDS_P2;PMS_P1;PMS_P2;Temp;Humidity;BMP_temperature;BMP_pressure;BME280_temperature;BME280_humidity;BME280_pressure;Samples;Min_cycle;Max_cycle;Signal;HPM_P1;HPM_P2
2022/04/01 06:35:38;;;;;;;11.03;10.00;;;;;;;15.61;52.05;91108.63;5082327;28;21394;-76
2022/04/01 06:38:08;;;;;;;12.17;11.07;;;;;;;15.74;52.55;91141.63;5075300;28;20290;-77
2022/04/01 06:40:33;;;;;;;9.93;8.93;;;;;;;15.81;51.65;91131.22;5045334;28;20198;-77
2022/04/01 06:42:59;;;;;;;10.13;9.10;;;;;;;16.06;47.23;91140.38;5043691;28;20253;-76
2022/04/01 06:45:24;;;;;;;10.43;9.67;;;;;;;16.67;44.12;91140.41;5045970;28;20193;-77
2022/04/01 06:47:50;;;;;;;12.57;10.03;;;;;;;17.29;41.46;91153.09;5045053;28;20190;-76
2022/04/01 06:50:20;;;;;;;10.53;9.63;;;;;;;17.75;40.86;91137.16;5045792;28;20217;-80
2022/04/01 06:52:46;;;;;;;15.47;9.93;;;;;;;17.71;40.57;91145.06;5046508;28;20205;-79
2022/04/01 06:55:12;;;;;;;11.43;8.97;;;;;;;17.80;41.72;91134.22;5045073;28;20226;-78
2022/04/01 06:57:38;;;;;;;10.13;9.33;;;;;;;18.32;39.69;91126.19;5072196;28;20190;-78
2022/04/01 07:00:05;;;;;;;9.63;8.77;;;;;;;18.20;38.55;91113.19;5043235;28;20298;-78
2022/04/01 07:02:31;;;;;;;12.07;9.50;;;;;;;17.94;39.03;91114.06;5044848;28;20190;-80
2022/04/01 07:04:56;;;;;;;10.03;9.03;;;;;;;17.95;40.78;91120.06;5044031;28;20229;-81
2022/04/01 07:07:22;;;;;;;11.80;9.97;;;;;;;18.21;40.05;91118.13;5044399;28;20207;-79
2022/04/01 07:09:47;;;;;;;10.10;9.30;;;;;;;18.36;39.32;91119.06;5044208;28;20329;-75
2022/04/01 07:12:13;;;;;;;10.97;9.93;;;;;;;18.16;39.44;91110.53;5044944;28;20205;-75
2022/04/01 07:14:38;;;;;;;11.93;8.93;;;;;;;18.05;39.28;91117.59;5043999;28;20229;-75
2022/04/01 07:17:04;;;;;;;10.67;9.60;;;;;;;18.21;39.36;91112.09;5042767;28;20186;-75
2022/04/01 07:19:29;;;;;;;13.00;7.47;;;;;;;18.17;39.96;91143.75;5043855;28;20234;-76
2022/04/01 07:21:55;;;;;;;13.13;9.67;;;;;;;18.24;38.89;91122.69;5043837;28;20265;-75
2022/04/01 07:24:20;;;;;;;13.00;10.17;;;;;;;18.52;39.12;91120.38;5043681;28;20226;-75
2022/04/01 07:26:46;;;;;;;11.77;9.13;;;;;;;18.38;39.21;91127.41;5046170;28;20226;-75
2022/04/01 07:29:12;;;;;;;11.43;10.17;;;;;;;18.19;39.22;91119.63;5042118;28;20222;-75
2022/04/01 07:34:36;;;;;;;11.87;9.70;;;;;;;18.73;38.96;91117.19;5043021;28;20241;-75
2022/04/01 07:37:03;;;;;;;9.50;8.60;;;;;;;18.33;38.34;91114.50;5044735;28;20194;-75
2022/04/01 07:39:28;;;;;;;9.30;8.50;;;;;;;18.43;38.87;91119.91;5041838;28;20245;-75
2022/04/01 07:41:54;;;;;;;10.47;9.30;;;;;;;18.45;38.45;91101.06;5042383;28;20184;-75
2022/04/01 07:44:20;;;;;;;22.57;10.40;;;;;;;18.62;38.73;91113.69;5043218;28;20250;-75
2022/04/01 07:46:46;;;;;;;17.77;9.93;;;;;;;18.48;38.93;91124.09;5032422;28;20194;-75
2022/04/01 07:49:12;;;;;;;10.13;9.43;;;;;;;18.18;38.81;91102.25;5029185;28;20239;-75
2022/04/01 07:51:38;;;;;;;10.83;9.60;;;;;;;18.40;39.82;91125.16;5029193;28;20232;-75
2022/04/01 07:54:03;;;;;;;12.87;9.47;;;;;;;18.50;39.48;91111.31;5031821;28;20228;-75
2022/04/01 07:56:31;;;;;;;12.27;8.77;;;;;;;18.54;38.76;91114.72;5026913;28;20272;-75
2022/04/01 07:58:58;;;;;;;14.97;9.03;;;;;;;18.62;38.98;91111.03;5030008;28;20226;-76
2022/04/01 08:01:23;;;;;;;12.67;8.33;;;;;;;18.28;39.28;91096.31;5031241;28;20203;-75
2022/04/01 08:03:49;;;;;;;13.73;8.10;;;;;;;18.34;39.16;91093.00;5031637;28;20238;-77
2022/04/01 08:06:14;;;;;;;10.43;9.63;;;;;;;17.88;40.91;91125.28;5030782;28;20198;-74
2022/04/01 08:08:40;;;;;;;9.20;8.40;;;;;;;18.32;40.08;91099.78;5029246;28;20228;-75
2022/04/01 08:11:06;;;;;;;23.10;10.07;;;;;;;18.43;39.67;91113.84;5029621;28;20222;-75
2022/04/01 08:13:32;;;;;;;13.20;9.60;;;;;;;18.26;40.26;91117.81;5029307;28;20249;-75
2022/04/01 08:15:58;;;;;;;14.17;10.57;;;;;;;18.19;41.49;91125.66;5030338;28;20191;-75
2022/04/01 08:18:23;;;;;;;8.70;8.07;;;;;;;18.24;40.50;91127.22;5030222;28;20223;-75
2022/04/01 08:20:49;;;;;;;8.17;7.40;;;;;;;18.32;39.79;91112.97;5028748;28;20197;-75
2022/04/01 08:23:14;;;;;;;9.70;9.00;;;;;;;18.16;39.88;91099.22;5030617;28;20247;-75
2022/04/01 08:25:40;;;;;;;9.37;8.57;;;;;;;18.34;40.11;91090.34;5030156;28;20237;-74
2022/04/01 08:28:06;;;;;;;12.93;9.03;;;;;;;18.16;40.13;91107.91;5031369;28;20237;-74
2022/04/01 08:30:32;;;;;;;10.17;8.50;;;;;;;18.16;40.42;91096.56;5029044;28;20508;-74
2022/04/01 08:32:58;;;;;;;17.00;9.27;;;;;;;18.15;40.34;91090.50;5027415;28;20255;-75
2022/04/01 08:35:23;;;;;;;11.10;9.07;;;;;;;18.07;41.18;91098.75;5031023;28;20242;-75
2022/04/01 08:37:49;;;;;;;15.67;9.77;;;;;;;17.91;40.67;91077.03;5030640;28;20720;-74
2022/04/01 08:40:15;;;;;;;11.40;9.03;;;;;;;17.77;41.59;91096.13;5031288;28;20214;-75
2022/04/01 08:42:47;;;;;;;10.83;9.70;;;;;;;17.69;41.75;91085.81;5029996;28;20182;-75
2022/04/01 08:45:17;;;;;;;10.27;9.30;;;;;;;17.73;43.21;91074.19;5031244;28;20219;-75
2022/04/01 08:47:42;;;;;;;16.80;8.53;;;;;;;18.02;42.46;91056.78;5029129;28;20214;-74
2022/04/01 08:50:09;;;;;;;10.47;8.40;;;;;;;18.03;42.41;91074.16;5030306;28;20242;-75
2022/04/01 08:52:34;;;;;;;8.83;7.97;;;;;;;17.85;41.94;91049.44;5030957;28;20203;-75
2022/04/01 08:55:06;;;;;;;15.17;9.03;;;;;;;17.99;43.06;91054.88;5031555;28;20318;-76
2022/04/01 08:57:39;;;;;;;19.47;9.83;;;;;;;17.83;43.15;91027.91;5029119;28;20207;-75
2022/04/01 09:00:25;;;;;;;13.57;7.80;;;;;;;17.76;43.99;90983.72;5029427;28;20207;-76
2022/04/01 09:03:02;;;;;;;9.50;8.33;;;;;;;17.83;44.24;91023.41;5022610;28;20217;-75
2022/04/01 09:05:28;;;;;;;11.57;8.67;;;;;;;17.59;43.18;90966.56;5031473;28;20229;-75
2022/04/01 09:08:05;;;;;;;12.57;9.50;;;;;;;17.70;45.04;90992.34;5030845;28;20207;-74
2022/04/01 09:10:48;;;;;;;10.17;9.00;;;;;;;17.81;47.29;90988.66;5031829;28;20187;-75
2022/04/01 09:13:13;;;;;;;9.90;8.37;;;;;;;17.28;50.33;90972.22;5028115;28;20222;-74
2022/04/01 09:15:41;;;;;;;12.73;10.60;;;;;;;17.27;47.58;90986.53;5031382;28;20191;-75
2022/04/01 09:18:06;;;;;;;9.53;8.43;;;;;;;17.63;45.60;90971.13;5029152;28;20228;-74
2022/04/01 09:20:48;;;;;;;10.50;9.03;;;;;;;17.75;45.50;90958.44;5030948;28;20193;-75
2022/04/01 09:23:22;;;;;;;10.30;9.23;;;;;;;17.95;45.15;90945.81;5029442;28;20290;-74
2022/04/01 09:25:49;;;;;;;10.47;9.47;;;;;;;17.93;44.81;90948.81;5031144;28;20199;-75
2022/04/01 09:28:35;;;;;;;11.53;10.33;;;;;;;17.74;45.25;90919.97;5029604;28;20222;-75
2022/04/01 09:31:00;;;;;;;14.53;9.37;;;;;;;17.41;49.83;90918.09;5029358;28;20189;-76
2022/04/01 09:33:53;;;;;;;12.47;10.03;;;;;;;17.06;47.91;90911.63;5028078;28;20982;-74
2022/04/01 09:36:33;;;;;;;9.73;8.73;;;;;;;17.41;46.36;90917.34;5027562;28;20207;-76
2022/04/01 09:39:06;;;;;;;10.10;9.10;;;;;;;17.62;45.56;90879.91;5028930;28;20257;-76
2022/04/01 09:41:34;;;;;;;9.87;9.10;;;;;;;17.84;44.21;90889.53;5029649;28;20194;-75
2022/04/01 09:44:06;;;;;;;12.77;11.43;;;;;;;17.58;44.54;90879.84;5028499;28;20230;-76
2022/04/01 09:46:32;;;;;;;9.93;9.07;;;;;;;17.94;44.97;90902.81;5026929;28;20197;-76
2022/04/01 09:49:01;;;;;;;11.43;10.40;;;;;;;17.72;43.62;90871.31;5028380;28;20226;-75
2022/04/01 09:51:32;;;;;;;16.07;10.53;;;;;;;17.77;42.68;90866.47;5026696;28;20190;-73
2022/04/01 09:54:02;;;;;;;11.20;10.43;;;;;;;17.77;43.41;90886.81;5026369;28;20237;-75
2022/04/01 09:56:44;;;;;;;11.03;9.57;;;;;;;18.02;42.41;90917.59;5026316;28;20186;-74
2022/04/01 09:59:12;;;;;;;8.10;7.50;;;;;;;18.21;41.84;90908.72;5028570;28;20238;-76
2022/04/01 10:01:38;;;;;;;13.40;8.43;;;;;;;18.14;41.44;90906.00;5028101;28;20183;-75
2022/04/01 10:04:04;;;;;;;12.20;8.47;;;;;;;18.28;40.91;90911.38;5029230;28;20245;-75
2022/04/01 10:06:34;;;;;;;8.93;8.33;;;;;;;18.62;40.46;90907.50;5030205;28;20203;-76
2022/04/01 10:09:05;;;;;;;11.40;8.80;;;;;;;18.34;40.45;90921.25;5027928;28;20239;-76
2022/04/01 10:11:31;;;;;;;9.27;8.63;;;;;;;18.59;40.52;90918.81;5024456;28;20187;-75
2022/04/01 10:14:03;;;;;;;10.23;9.53;;;;;;;18.71;39.94;90918.50;5028178;28;20241;-76
2022/04/01 10:16:33;;;;;;;13.37;9.37;;;;;;;18.34;39.73;90931.06;5027950;28;20209;-75
2022/04/01 10:19:03;;;;;;;15.37;9.03;;;;;;;18.34;40.21;90909.91;5029181;28;20233;-76
2022/04/01 10:21:29;;;;;;;10.40;9.10;;;;;;;18.42;40.86;90914.16;5029032;28;20202;-80
2022/04/01 10:24:36;;;;;;;16.87;9.67;;;;;;;18.53;40.52;90936.16;5028548;28;20227;-79
2022/04/01 10:27:13;;;;;;;9.07;8.13;;;;;;;18.36;40.17;90944.66;5029282;28;20202;-79
2022/04/01 10:29:39;;;;;;;9.30;8.27;;;;;;;18.36;40.33;90923.53;5028518;28;20368;-77
2022/04/01 10:32:28;;;;;;;13.77;10.07;;;;;;;18.50;40.65;90916.50;5028859;28;20175;-82
2022/04/01 10:35:01;;;;;;;9.33;8.47;;;;;;;18.82;40.20;90937.84;5028740;28;20864;-83
2022/04/01 10:37:30;;;;;;;8.10;7.70;;;;;;;18.73;40.84;90961.19;5024046;28;20257;-74
2022/04/01 10:39:59;;;;;;;9.30;8.33;;;;;;;18.59;40.01;90967.16;5029227;28;20257;-73
2022/04/01 10:42:30;;;;;;;10.53;8.93;;;;;;;18.51;39.26;90951.59;5029712;28;20202;-74
2022/04/01 10:44:58;;;;;;;10.17;9.10;;;;;;;18.61;39.71;90961.50;5023382;28;20238;-76
2022/04/01 10:53:38;;;;;;;10.67;9.63;;;;;;;18.59;39.36;90947.88;5026047;28;20254;-75
2022/04/01 10:56:22;;;;;;;10.80;9.13;;;;;;;18.33;39.01;90918.97;5025620;28;20195;-81
2022/04/01 10:59:02;;;;;;;8.90;8.40;;;;;;;18.40;39.07;90908.47;5026627;28;20218;-74
2022/04/01 11:01:27;;;;;;;11.00;9.40;;;;;;;18.63;38.79;90915.06;5028589;28;20282;-75
2022/04/01 11:03:59;;;;;;;17.93;9.10;;;;;;;18.82;38.60;90906.09;5024117;28;20227;-77
2022/04/01 11:06:27;;;;;;;9.17;8.57;;;;;;;19.10;37.93;90893.78;5024840;28;20182;-75
2022/04/01 11:08:56;;;;;;;8.20;7.70;;;;;;;19.39;38.14;90872.75;5024566;28;20220;-75
2022/04/01 11:11:22;;;;;;;8.43;7.30;;;;;;;19.48;38.31;90887.16;5025196;28;20255;-76
2022/04/01 11:14:07;;;;;;;13.43;9.20;;;;;;;19.25;37.66;90880.63;5019588;28;20828;-75
2022/04/01 11:16:52;;;;;;;9.87;9.07;;;;;;;19.42;37.52;90899.25;5019013;28;20214;-74
2022/04/01 11:19:22;;;;;;;9.63;8.60;;;;;;;19.50;36.59;90906.09;5016582;28;20230;-75
2022/04/01 11:21:48;;;;;;;9.00;8.40;;;;;;;19.60;36.97;90905.34;5025165;28;20186;-75
2022/04/01 11:24:30;;;;;;;8.67;7.87;;;;;;;19.51;36.58;90896.25;5029369;28;20232;-75
2022/04/01 11:27:04;;;;;;;10.53;8.87;;;;;;;19.67;35.55;90923.91;5028229;28;20193;-76
2022/04/01 11:29:30;;;;;;;8.27;7.63;;;;;;;19.63;35.58;90941.66;5029984;28;20908;-79
2022/04/01 11:32:05;;;;;;;12.00;8.87;;;;;;;19.53;36.26;90939.75;5028515;28;20184;-74
2022/04/01 11:34:30;;;;;;;14.73;10.07;;;;;;;19.22;36.32;90963.38;5029332;28;20270;-75
2022/04/01 11:37:03;;;;;;;8.27;7.77;;;;;;;19.08;37.87;90959.53;5027832;28;20186;-74
2022/04/01 11:39:29;;;;;;;9.43;8.50;;;;;;;19.08;38.39;90945.56;5028150;28;20243;-76
2022/04/01 11:41:54;;;;;;;8.67;7.90;;;;;;;19.13;38.32;90934.63;5026740;28;20193;-75
2022/04/01 11:44:22;;;;;;;8.00;7.40;;;;;;;19.49;36.61;90951.44;5028952;28;20246;-76
2022/04/01 11:46:52;;;;;;;11.97;8.60;;;;;;;19.03;36.36;90924.75;5031426;28;20218;-76
2022/04/01 11:49:17;;;;;;;9.63;8.53;;;;;;;19.21;37.07;90919.56;5027267;28;21282;-75
2022/04/01 11:51:43;;;;;;;9.83;8.77;;;;;;;18.84;37.34;90928.44;5028287;28;20188;-76
2022/04/01 11:54:10;;;;;;;10.03;9.10;;;;;;;18.56;38.06;90908.97;5030288;28;20238;-76
2022/04/01 11:56:36;;;;;;;8.10;7.30;;;;;;;18.59;38.80;90889.75;5030098;28;20329;-77
2022/04/01 11:59:07;;;;;;;8.03;7.43;;;;;;;18.50;39.87;90897.25;5029648;28;20955;-77
2022/04/01 12:01:35;;;;;;;8.83;7.77;;;;;;;18.60;40.30;90878.81;5030700;28;20199;-77
2022/04/01 12:04:25;;;;;;;9.83;8.93;;;;;;;18.36;39.64;90875.97;5026794;28;20313;-76
2022/04/01 12:09:34;;;;;;;9.07;8.13;;;;;;;18.15;39.93;90870.56;5028629;28;20241;-76
2022/04/01 12:12:01;;;;;;;9.93;8.30;;;;;;;18.13;40.80;90868.28;5031113;28;20266;-76
2022/04/01 12:14:28;;;;;;;8.33;7.63;;;;;;;18.18;40.60;90851.34;5029191;28;20231;-76
2022/04/01 12:16:54;;;;;;;8.87;8.27;;;;;;;17.94;41.31;90850.00;5026538;28;20192;-76
2022/04/01 12:19:21;;;;;;;8.83;8.20;;;;;;;17.94;41.71;90857.94;5030217;28;20222;-74
2022/04/01 12:21:49;;;;;;;9.07;8.47;;;;;;;17.63;41.25;90860.28;5029862;28;20771;-75
2022/04/01 12:24:15;;;;;;;9.00;8.27;;;;;;;17.66;41.59;90864.84;5029020;28;20233;-76
2022/04/01 12:26:43;;;;;;;9.47;8.57;;;;;;;17.83;41.62;90885.34;5027884;28;20190;-76
2022/04/01 12:29:22;;;;;;;9.40;8.73;;;;;;;18.01;41.09;90917.97;5030698;28;20235;-75
2022/04/01 12:32:03;;;;;;;9.27;8.57;;;;;;;18.18;41.39;90964.91;5028565;28;20175;-76
2022/04/01 12:34:29;;;;;;;9.93;8.07;;;;;;;18.60;40.49;90957.34;5028238;28;20241;-77
2022/04/01 12:37:01;;;;;;;8.30;7.70;;;;;;;18.56;42.18;90964.47;5031022;28;20192;-76
2022/04/01 12:39:28;;;;;;;9.83;7.87;;;;;;;18.65;41.93;90983.44;5029908;28;20241;-77
2022/04/01 12:41:56;;;;;;;8.20;7.60;;;;;;;18.30;41.41;90972.56;5028378;28;20191;-76
2022/04/01 12:44:24;;;;;;;8.53;7.73;;;;;;;18.98;40.55;90954.97;5029683;28;20245;-76
2022/04/01 12:46:50;;;;;;;9.87;7.60;;;;;;;18.72;40.14;90959.69;5028338;28;20197;-77
2022/04/01 12:49:24;;;;;;;9.20;8.23;;;;;;;18.29;41.31;90944.63;5029023;28;20222;-76
2022/04/01 12:51:54;;;;;;;9.43;8.50;;;;;;;18.32;41.83;90941.25;5029311;28;20184;-75
2022/04/01 12:54:42;;;;;;;8.33;7.87;;;;;;;18.64;42.94;90913.97;5030262;28;20235;-75
2022/04/01 12:57:12;;;;;;;9.30;8.60;;;;;;;17.87;42.38;90899.38;5030710;28;20187;-78
2022/04/01 12:59:43;;;;;;;9.43;7.63;;;;;;;17.97;42.24;90877.56;5029938;28;20222;-75
2022/04/01 13:02:13;;;;;;;9.40;8.57;;;;;;;18.57;42.05;90902.56;5029179;28;20299;-76
2022/04/01 13:04:39;;;;;;;8.50;7.97;;;;;;;18.13;41.86;90881.47;5029712;28;20237;-77
2022/04/01 13:07:07;;;;;;;8.73;8.03;;;;;;;17.99;43.13;90843.63;5029820;28;20192;-76
2022/04/01 13:09:43;;;;;;;9.37;8.17;;;;;;;17.80;44.13;90831.41;5029364;28;20228;-76
2022/04/01 13:12:09;;;;;;;9.30;8.57;;;;;;;17.61;44.93;90858.00;5030593;28;20182;-75
2022/04/01 13:14:35;;;;;;;10.00;9.13;;;;;;;17.87;43.91;90870.31;5029619;28;20253;-75
2022/04/01 13:17:10;;;;;;;10.67;7.83;;;;;;;18.16;44.10;90883.38;5028756;28;20191;-76
2022/04/01 13:19:37;;;;;;;9.37;8.57;;;;;;;17.90;44.04;90909.19;5026892;28;20282;-76
2022/04/01 13:22:06;;;;;;;8.03;7.33;;;;;;;17.78;43.77;90872.47;5024963;28;20259;-74
2022/04/01 13:24:47;;;;;;;13.50;8.67;;;;;;;17.83;44.61;90903.84;5028847;28;20214;-76
2022/04/01 13:27:15;;;;;;;8.57;7.70;;;;;;;17.75;45.12;90915.44;5028936;28;20175;-75
2022/04/01 13:29:41;;;;;;;8.90;8.07;;;;;;;17.60;45.34;90922.47;5027680;28;20235;-74
2022/04/01 13:32:08;;;;;;;11.97;8.70;;;;;;;17.47;45.67;90921.97;5028121;28;20191;-75
2022/04/01 13:34:35;;;;;;;15.30;9.37;;;;;;;16.90;46.63;90911.81;5028264;28;20246;-75
2022/04/01 13:37:01;;;;;;;8.30;7.77;;;;;;;16.85;46.78;90922.69;5031516;28;20199;-74
2022/04/01 13:39:28;;;;;;;11.70;9.63;;;;;;;16.77;49.25;90938.75;5028878;28;20227;-76
2022/04/01 13:41:55;;;;;;;8.53;8.03;;;;;;;16.47;51.10;90959.03;5028788;28;20206;-75
2022/04/01 13:44:20;;;;;;;8.63;8.13;;;;;;;16.15;53.58;90934.81;5028240;28;20239;-76
2022/04/01 13:46:47;;;;;;;9.17;8.47;;;;;;;15.95;53.83;90963.06;5027089;28;20221;-77
2022/04/01 13:49:13;;;;;;;10.87;9.00;;;;;;;15.79;55.07;90966.91;5025335;28;20231;-77
2022/04/01 13:51:39;;;;;;;8.83;8.33;;;;;;;15.98;55.24;90951.81;5028227;28;20281;-77
2022/04/01 13:54:05;;;;;;;12.13;9.93;;;;;;;15.90;55.19;90920.50;5025868;28;20242;-76
2022/04/01 13:56:30;;;;;;;9.70;8.87;;;;;;;15.93;54.48;90946.88;5029455;28;20226;-75
2022/04/01 13:58:56;;;;;;;9.40;8.70;;;;;;;15.90;55.50;90984.44;5023895;28;20233;-75
2022/04/01 14:01:22;;;;;;;10.83;9.80;;;;;;;15.98;56.15;90970.25;5028647;28;20191;-76
2022/04/01 14:03:48;;;;;;;10.93;9.87;;;;;;;16.02;56.60;90963.19;5024983;28;20238;-82
2022/04/01 14:06:14;;;;;;;15.50;13.90;;;;;;;15.40;57.57;90966.22;5020512;28;20183;-75
2022/04/01 14:08:40;;;;;;;9.90;9.40;;;;;;;14.98;61.98;90957.47;5025377;28;20226;-75
2022/04/01 14:11:08;;;;;;;8.90;8.40;;;;;;;14.78;59.92;90963.03;5026840;28;20191;-76
2022/04/01 14:13:34;;;;;;;8.93;8.33;;;;;;;14.91;61.16;90970.44;5029119;28;20226;-76
2022/04/01 14:16:01;;;;;;;9.27;8.70;;;;;;;14.99;59.99;91013.41;5027123;28;20192;-75
2022/04/01 14:18:27;;;;;;;9.40;8.90;;;;;;;14.76;64.50;91026.41;5026610;28;20229;-76
2022/04/01 14:20:57;;;;;;;9.70;8.80;;;;;;;14.41;65.38;91107.00;5026789;28;20639;-77
2022/04/01 14:23:23;;;;;;;9.67;9.03;;;;;;;13.69;69.82;91186.75;5026554;28;20282;-76
2022/04/01 14:25:49;;;;;;;9.17;8.57;;;;;;;12.96;77.48;91288.16;5027500;28;20166;-77
2022/04/01 14:28:14;;;;;;;9.10;8.70;;;;;;;11.03;75.56;91239.31;5026725;28;20234;-75
2022/04/01 14:30:40;;;;;;;9.17;8.77;;;;;;;10.40;78.68;91207.25;5026613;28;20225;-75
2022/04/01 14:33:07;;;;;;;8.77;8.47;;;;;;;10.11;82.56;91189.69;5026081;28;20222;-75
2022/04/01 14:35:34;;;;;;;9.50;9.10;;;;;;;9.89;85.00;91182.03;5025105;28;20221;-75
2022/04/01 14:38:01;;;;;;;9.40;9.10;;;;;;;9.70;83.58;91182.34;5027808;28;20251;-74
2022/04/01 14:40:27;;;;;;;9.33;9.03;;;;;;;9.55;82.50;91174.22;5028871;28;20236;-76
2022/04/01 14:42:53;;;;;;;8.27;7.97;;;;;;;9.59;85.80;91190.75;5027839;28;20282;-76
2022/04/01 14:45:19;;;;;;;8.33;8.03;;;;;;;9.65;85.29;91171.28;5028187;28;20265;-77
2022/04/01 14:47:45;;;;;;;8.27;8.07;;;;;;;9.82;86.19;91148.59;5027129;28;20218;-75
2022/04/01 14:50:11;;;;;;;8.37;8.07;;;;;;;10.11;81.23;91170.66;5027926;28;20706;-76
2022/04/01 14:52:37;;;;;;;8.00;7.73;;;;;;;10.43;79.97;91155.22;5027984;28;20221;-76
2022/04/01 14:55:03;;;;;;;8.97;8.67;;;;;;;10.25;80.61;91132.91;5029503;28;20233;-76
2022/04/01 14:57:29;;;;;;;7.93;7.33;;;;;;;10.47;78.87;91150.16;5031650;28;20194;-75
2022/04/01 14:59:56;;;;;;;9.87;9.37;;;;;;;10.58;78.78;91143.53;5032617;28;20234;-75
2022/04/01 15:02:22;;;;;;;9.33;9.03;;;;;;;10.43;81.95;91136.22;5032014;28;20198;-76
2022/04/01 15:04:48;;;;;;;8.70;8.40;;;;;;;10.53;80.97;91104.56;5033537;28;20242;-77
2022/04/01 15:07:13;;;;;;;8.10;7.90;;;;;;;10.70;82.42;91073.91;5034465;28;20201;-74
2022/04/01 15:09:41;;;;;;;9.07;8.53;;;;;;;10.96;83.72;91032.75;5032270;28;20241;-80
2022/04/01 15:12:09;;;;;;;7.60;7.40;;;;;;;11.07;83.61;91015.63;5031505;28;20179;-79
2022/04/01 15:14:34;;;;;;;8.03;7.77;;;;;;;11.49;81.61;91010.34;5030440;28;20226;-75
2022/04/01 15:17:00;;;;;;;10.00;9.60;;;;;;;11.18;77.12;90974.97;5029785;28;20195;-81
2022/04/01 15:19:25;;;;;;;9.10;8.80;;;;;;;11.43;79.63;91006.38;5028520;28;20214;-81
2022/04/01 15:21:52;;;;;;;9.13;8.73;;;;;;;11.86;82.15;91030.28;5027570;28;20252;-78
2022/04/01 15:24:18;;;;;;;8.90;8.47;;;;;;;11.94;78.82;91058.19;5021317;28;20215;-79
2022/04/01 15:26:44;;;;;;;8.60;8.30;;;;;;;12.22;79.17;91053.84;5027962;28;20175;-77
2022/04/01 15:29:10;;;;;;;8.13;7.83;;;;;;;12.00;80.02;91041.94;5027410;28;20243;-79
2022/04/01 15:31:36;;;;;;;8.13;7.73;;;;;;;11.26;81.61;90996.88;5029753;28;20254;-74
2022/04/01 15:34:02;;;;;;;8.27;7.97;;;;;;;11.51;81.41;91034.28;5028089;28;20254;-74
2022/04/01 15:36:29;;;;;;;9.23;8.83;;;;;;;11.35;83.35;91045.34;5027722;28;20246;-73
2022/04/01 15:38:56;;;;;;;7.83;7.53;;;;;;;11.33;83.29;91034.44;5030026;28;20219;-74
2022/04/01 15:41:25;;;;;;;8.30;8.00;;;;;;;11.03;88.86;91053.91;5027994;28;20179;-75
2022/04/01 15:43:51;;;;;;;10.23;9.63;;;;;;;11.03;89.93;91034.84;5028510;28;20241;-74
2022/04/01 15:46:24;;;;;;;9.37;8.87;;;;;;;11.00;85.49;91046.69;5029245;28;20184;-74
2022/04/01 15:48:50;;;;;;;8.80;8.30;;;;;;;11.17;88.73;91069.31;5029416;28;20223;-73
2022/04/01 15:51:18;;;;;;;9.33;8.73;;;;;;;11.31;86.27;91057.50;5030257;28;20247;-78
2022/04/01 15:53:47;;;;;;;11.43;10.73;;;;;;;11.18;85.42;91042.88;5029461;28;20226;-77
2022/04/01 15:56:12;;;;;;;9.80;9.27;;;;;;;11.04;88.98;91055.41;5031170;28;20191;-75
2022/04/01 15:58:40;;;;;;;9.10;8.50;;;;;;;10.91;89.31;91072.09;5032623;28;20236;-76
2022/04/01 16:01:06;;;;;;;10.23;9.63;;;;;;;11.26;89.39;91076.00;5029350;28;20198;-78
2022/04/01 16:03:33;;;;;;;9.70;9.17;;;;;;;10.76;89.68;91077.88;5030779;28;20288;-76
2022/04/01 16:06:00;;;;;;;8.53;8.13;;;;;;;11.20;90.86;91089.56;5027444;28;20188;-78
2022/04/01 16:08:26;;;;;;;8.60;8.20;;;;;;;11.32;90.76;91081.78;5031811;28;20247;-77
2022/04/01 16:10:53;;;;;;;8.90;8.50;;;;;;;11.29;92.24;91085.81;5030993;28;20183;-77
2022/04/01 16:13:28;;;;;;;9.23;8.83;;;;;;;11.27;90.99;91081.97;5024931;28;20300;-75
2022/04/01 16:15:54;;;;;;;9.80;9.40;;;;;;;11.30;91.01;91061.19;5024395;28;20187;-77
2022/04/01 16:18:20;;;;;;;9.13;8.73;;;;;;;11.30;90.71;91076.09;5025905;28;20237;-75
2022/04/01 16:20:46;;;;;;;9.50;9.10;;;;;;;10.70;90.32;91068.69;5025753;28;20215;-75
2022/04/01 16:23:15;;;;;;;9.23;8.73;;;;;;;11.10;91.13;91058.59;5025974;28;20219;-74
2022/04/01 16:25:41;;;;;;;10.13;9.53;;;;;;;11.10;91.57;91058.59;5028398;28;20234;-76
2022/04/01 16:28:06;;;;;;;9.00;8.63;;;;;;;11.12;90.87;91059.81;5024959;28;20576;-77
2022/04/01 16:30:33;;;;;;;10.57;9.67;;;;;;;11.08;92.08;91048.47;5024499;28;20226;-75
2022/04/01 16:33:00;;;;;;;10.23;9.63;;;;;;;10.75;93.08;91039.81;5028133;28;20186;-78
2022/04/01 16:35:26;;;;;;;9.43;8.73;;;;;;;10.97;93.24;91036.88;5031453;28;20873;-75
2022/04/01 16:37:53;;;;;;;13.07;12.17;;;;;;;10.87;90.77;91042.50;5027154;28;20179;-74
2022/04/01 16:40:19;;;;;;;11.50;10.80;;;;;;;10.84;91.32;91040.53;5030826;28;20208;-74
2022/04/01 16:42:45;;;;;;;10.97;10.37;;;;;;;10.86;90.27;91022.66;5028311;28;20641;-74
2022/04/01 16:45:11;;;;;;;10.27;9.77;;;;;;;10.63;89.44;91020.72;5028588;28;20194;-75
2022/04/01 16:47:37;;;;;;;10.07;9.47;;;;;;;10.72;90.93;91014.31;5028272;28;20188;-73
2022/04/01 16:50:03;;;;;;;8.23;7.90;;;;;;;11.02;80.39;91030.69;5027076;28;20227;-74
2022/04/01 16:52:28;;;;;;;9.27;8.87;;;;;;;11.11;84.63;91016.50;5028362;28;20195;-75
2022/04/01 16:54:54;;;;;;;9.90;9.20;;;;;;;10.94;84.70;91006.19;5026098;28;20234;-73
2022/04/01 16:57:19;;;;;;;11.13;9.13;;;;;;;11.04;87.30;91037.16;5024806;28;20196;-74
2022/04/01 16:59:45;;;;;;;9.67;8.87;;;;;;;10.86;88.42;91032.38;5025734;28;20227;-73
2022/04/01 17:02:10;;;;;;;9.37;8.63;;;;;;;11.23;78.14;91032.25;5027059;28;20197;-74
2022/04/01 17:04:37;;;;;;;9.07;8.67;;;;;;;11.50;76.59;91017.84;5028224;28;20220;-73
2022/04/01 17:12:32;;;;;;;9.50;9.07;;;;;;;11.98;74.87;91044.16;5029059;28;20206;-76
2022/04/01 17:15:03;;;;;;;9.13;8.40;;;;;;;12.12;69.72;91034.13;5029551;28;20222;-75
2022/04/01 17:17:29;;;;;;;9.80;9.20;;;;;;;12.09;70.72;91036.63;5028819;28;20278;-73
2022/04/01 17:19:55;;;;;;;9.13;8.70;;;;;;;12.16;70.24;91044.69;5029921;28;20238;-71
2022/04/01 17:22:24;;;;;;;9.23;8.70;;;;;;;12.03;70.44;91040.56;5028755;28;20209;-71
2022/04/01 17:24:51;;;;;;;9.73;9.13;;;;;;;12.21;70.84;91044.50;5028626;28;20222;-72
2022/04/01 17:27:17;;;;;;;9.83;9.33;;;;;;;12.08;73.86;91048.16;5026514;28;20800;-72
2022/04/01 17:29:43;;;;;;;10.37;9.50;;;;;;;11.89;74.62;91055.78;5024060;28;20215;-72
2022/04/01 17:32:16;;;;;;;8.97;8.47;;;;;;;12.00;74.87;91046.44;5025973;28;20223;-74
2022/04/01 17:34:46;;;;;;;9.23;8.80;;;;;;;12.05;73.96;91038.34;5025468;28;20231;-72
2022/04/01 17:37:12;;;;;;;10.73;10.03;;;;;;;11.85;75.70;91054.88;5023416;28;20198;-72
2022/04/01 17:39:39;;;;;;;10.00;9.40;;;;;;;11.31;81.87;91067.94;5023906;28;20263;-71
2022/04/01 17:42:11;;;;;;;10.53;9.93;;;;;;;11.12;83.31;91075.50;5024582;28;20242;-71
2022/04/01 17:44:39;;;;;;;9.87;9.37;;;;;;;11.06;85.24;91076.78;5027679;28;20265;-71
2022/04/01 17:47:06;;;;;;;10.60;9.97;;;;;;;11.02;83.80;91101.19;5023667;28;20227;-72
2022/04/01 17:49:31;;;;;;;10.07;9.57;;;;;;;10.99;83.10;91091.38;5025102;28;20282;-71
2022/04/01 17:52:01;;;;;;;11.30;10.70;;;;;;;10.79;85.04;91126.06;5023911;28;20259;-73
2022/04/01 17:54:27;;;;;;;11.23;10.23;;;;;;;10.82;87.30;91157.53;5023871;28;20218;-73
2022/04/01 17:56:54;;;;;;;11.57;10.77;;;;;;;10.75;86.90;91177.38;5025430;28;20191;-72
2022/04/01 17:59:23;;;;;;;11.10;10.20;;;;;;;10.61;90.09;91201.06;5025583;28;20337;-72
2022/04/01 18:01:54;;;;;;;10.07;9.37;;;;;;;10.73;92.40;91167.25;5027325;28;20217;-72
2022/04/01 18:04:22;;;;;;;9.97;9.10;;;;;;;10.57;96.55;91158.41;5025977;28;20234;-72
2022/04/01 18:06:50;;;;;;;9.07;8.63;;;;;;;10.49;98.65;91124.53;5027001;28;20192;-73
2022/04/01 18:09:21;;;;;;;10.90;10.30;;;;;;;10.51;97.74;91119.75;5025852;28;20226;-74
2022/04/01 18:11:47;;;;;;;9.47;9.07;;;;;;;10.55;88.69;91108.38;5021879;28;20194;-74
2022/04/01 18:14:13;;;;;;;9.97;9.37;;;;;;;10.53;91.17;91110.53;5023359;28;20227;-75
2022/04/01 18:16:39;;;;;;;8.30;8.00;;;;;;;10.37;90.37;91106.91;5027344;28;20187;-74
2022/04/01 18:19:04;;;;;;;9.20;8.70;;;;;;;10.48;84.98;91096.91;5026272;28;20246;-73
2022/04/01 18:21:30;;;;;;;9.13;8.60;;;;;;;10.41;85.27;91096.63;5025840;28;20189;-73
2022/04/01 18:23:55;;;;;;;10.17;9.50;;;;;;;10.38;85.22;91112.91;5023825;28;20262;-74
2022/04/01 18:26:20;;;;;;;8.93;8.00;;;;;;;10.60;84.45;91110.81;5026192;28;20187;-72